createdAt,value
2023-01-27T00:00:25.194Z,99878.00
2023-01-27T00:01:57.528Z,99886.00
2023-01-27T00:03:30.765Z,99887.00
2023-01-27T00:05:04.083Z,99886.00
2023-01-27T00:06:38.527Z,99894.00
2023-01-27T00:08:12.302Z,99884.00
2023-01-27T00:09:45.625Z,99887.00
2023-01-27T00:11:36.265Z,99900.00
2023-01-27T00:13:28.346Z,99885.00
2023-01-27T00:15:01.447Z,99892.00
2023-01-27T00:16:34.602Z,99893.00
2023-01-27T00:18:08.433Z,99892.00
2023-01-27T00:19:44.643Z,99899.00
2023-01-27T00:21:35.608Z,99894.00
2023-01-27T00:23:34.839Z,99887.00
2023-01-27T00:25:09.247Z,99898.00
2023-01-27T00:26:42.685Z,99893.00
2023-01-27T00:28:22.916Z,99894.00
2023-01-27T00:29:56.068Z,99887.00
2023-01-27T00:31:47.046Z,99894.00
2023-01-27T00:33:26.652Z,99898.00
2023-01-27T00:34:59.956Z,99892.00
2023-01-27T00:36:33.058Z,99903.00
2023-01-27T00:38:05.363Z,99895.00
2023-01-27T00:39:40.527Z,99896.00
2023-01-27T00:41:15.299Z,99891.00
2023-01-27T00:42:48.562Z,99888.00
2023-01-27T00:44:20.907Z,99888.00
2023-01-27T00:45:53.979Z,99891.00
2023-01-27T00:47:27.059Z,99890.00
2023-01-27T00:49:00.412Z,99890.00
2023-01-27T00:50:33.536Z,99888.00
2023-01-27T00:52:06.537Z,99898.00
2023-01-27T00:53:38.843Z,99893.00
2023-01-27T00:55:15.803Z,99897.00
2023-01-27T00:56:50.235Z,99896.00
2023-01-27T00:58:22.808Z,99897.00
2023-01-27T00:59:57.308Z,99896.00
2023-01-27T01:01:32.209Z,99904.00
2023-01-27T01:03:04.425Z,99906.00
2023-01-27T01:04:38.160Z,99901.00
2023-01-27T01:06:18.399Z,99908.00
2023-01-27T01:07:51.568Z,99908.00
2023-01-27T01:09:25.186Z,99908.00
2023-01-27T01:10:59.367Z,99907.00
2023-01-27T01:12:32.482Z,99912.00
2023-01-27T01:14:05.833Z,99915.00
2023-01-27T01:15:38.979Z,99914.00
2023-01-27T01:17:12.681Z,99911.00
2023-01-27T01:18:46.973Z,99921.00
2023-01-27T01:20:20.104Z,99917.00
2023-01-27T01:21:53.366Z,99925.00
2023-01-27T01:23:26.719Z,99932.00
2023-01-27T01:24:59.754Z,99928.00
2023-01-27T01:26:34.607Z,99926.00
2023-01-27T01:28:09.432Z,99928.00
2023-01-27T01:29:43.069Z,99925.00
2023-01-27T01:31:19.485Z,99932.00
2023-01-27T01:32:51.912Z,99928.00
2023-01-27T01:34:25.035Z,99926.00
2023-01-27T01:35:57.088Z,99919.00
2023-01-27T01:37:30.239Z,99927.00
2023-01-27T01:39:03.657Z,99933.00
2023-01-27T01:40:42.510Z,99924.00
2023-01-27T01:42:16.236Z,99923.00
2023-01-27T01:43:51.065Z,99935.00
2023-01-27T01:45:53.095Z,99935.00
2023-01-27T01:47:26.346Z,99923.00
2023-01-27T01:49:04.053Z,99935.00
2023-01-27T01:50:40.549Z,99937.00
2023-01-27T01:52:19.812Z,99935.00
2023-01-27T01:54:00.785Z,99922.00
2023-01-27T01:55:37.781Z,99923.00
2023-01-27T01:57:16.353Z,99935.00
2023-01-27T01:58:52.308Z,99928.00
2023-01-27T02:00:25.441Z,99935.00
2023-01-27T02:02:04.427Z,99924.00
2023-01-27T02:03:42.705Z,99924.00
2023-01-27T02:05:24.364Z,99924.00
2023-01-27T02:07:06.658Z,99918.00
2023-01-27T02:08:43.192Z,99921.00
2023-01-27T02:10:16.390Z,99926.00
2023-01-27T02:11:52.562Z,99924.00
2023-01-27T02:13:25.859Z,99933.00
2023-01-27T02:15:00.574Z,99927.00
2023-01-27T02:16:34.677Z,99924.00
2023-01-27T02:18:08.596Z,99932.00
2023-01-27T02:19:55.779Z,99926.00
2023-01-27T02:21:29.059Z,99923.00
2023-01-27T02:23:14.937Z,99925.00
2023-01-27T02:24:58.958Z,99919.00
2023-01-27T02:26:38.615Z,99912.00
2023-01-27T02:28:11.184Z,99916.00
2023-01-27T02:29:44.236Z,99916.00
2023-01-27T02:31:17.510Z,99913.00
2023-01-27T02:32:50.783Z,99924.00
2023-01-27T02:34:34.160Z,99931.00
2023-01-27T02:36:12.882Z,99918.00
2023-01-27T02:37:48.608Z,99923.00
2023-01-27T02:39:32.071Z,99920.00
2023-01-27T02:41:13.676Z,99913.00
2023-01-27T02:42:48.321Z,99919.00
2023-01-27T02:44:22.239Z,99926.00
2023-01-27T02:45:54.456Z,99932.00
2023-01-27T02:47:28.019Z,99936.00
2023-01-27T02:49:01.206Z,99927.00
2023-01-27T02:50:33.406Z,99933.00
2023-01-27T02:52:06.975Z,99929.00
2023-01-27T02:53:41.064Z,99923.00
2023-01-27T02:55:14.599Z,99936.00
2023-01-27T02:56:47.941Z,99936.00
2023-01-27T02:58:24.237Z,99941.00
2023-01-27T03:00:00.143Z,99923.00
2023-01-27T03:01:52.733Z,99929.00
2023-01-27T03:03:26.423Z,99935.00
2023-01-27T03:05:00.187Z,99942.00
2023-01-27T03:06:33.381Z,99936.00
2023-01-27T03:08:05.870Z,99941.00
2023-01-27T03:09:38.970Z,99929.00
2023-01-27T03:11:13.516Z,99930.00
2023-01-27T03:12:45.800Z,99941.00
2023-01-27T03:14:19.895Z,99928.00
2023-01-27T03:16:13.532Z,99938.00
2023-01-27T03:18:06.778Z,99935.00
2023-01-27T03:19:39.863Z,99935.00
2023-01-27T03:21:12.100Z,99941.00
2023-01-27T03:22:45.526Z,99939.00
2023-01-27T03:24:20.185Z,99936.00
2023-01-27T03:25:53.672Z,99940.00
2023-01-27T03:27:26.900Z,99934.00
2023-01-27T03:29:37.706Z,99935.00
2023-01-27T03:31:19.228Z,99929.00
2023-01-27T03:32:59.492Z,99932.00
2023-01-27T03:34:47.976Z,99938.00
2023-01-27T03:36:48.862Z,99934.00
2023-01-27T03:38:40.228Z,99930.00
2023-01-27T03:40:32.362Z,99934.00
2023-01-27T03:42:23.306Z,99932.00
2023-01-27T03:44:15.343Z,99941.00
2023-01-27T03:46:09.080Z,99928.00
2023-01-27T03:47:42.337Z,99933.00
2023-01-27T03:49:16.820Z,99927.00
2023-01-27T03:50:53.630Z,99934.00
2023-01-27T03:52:26.790Z,99928.00
2023-01-27T03:54:00.847Z,99935.00
2023-01-27T03:55:35.416Z,99928.00
2023-01-27T03:57:08.569Z,99927.00
2023-01-27T03:58:41.699Z,99930.00
2023-01-27T04:00:16.025Z,99934.00
2023-01-27T04:01:49.480Z,99933.00
2023-01-27T04:03:43.004Z,99926.00
2023-01-27T04:05:35.738Z,99934.00
2023-01-27T04:07:13.968Z,99924.00
2023-01-27T04:08:46.245Z,99924.00
2023-01-27T04:10:19.785Z,99919.00
2023-01-27T04:11:55.716Z,99919.00
2023-01-27T04:13:27.845Z,99933.00
2023-01-27T04:15:01.113Z,99930.00
2023-01-27T04:16:34.398Z,99931.00
2023-01-27T04:18:07.562Z,99926.00
2023-01-27T04:19:41.649Z,99929.00
2023-01-27T04:21:16.889Z,99944.00
2023-01-27T04:22:50.007Z,99931.00
2023-01-27T04:24:24.060Z,99931.00
2023-01-27T04:25:56.610Z,99936.00
2023-01-27T04:27:30.009Z,99936.00
2023-01-27T04:29:07.355Z,99933.00
2023-01-27T04:30:40.610Z,99928.00
2023-01-27T04:32:15.197Z,99937.00
2023-01-27T04:33:47.335Z,99944.00
2023-01-27T04:35:23.348Z,99935.00
2023-01-27T04:37:00.155Z,99947.00
2023-01-27T04:38:33.424Z,99946.00
2023-01-27T04:40:08.431Z,99946.00
2023-01-27T04:41:41.562Z,99958.00
2023-01-27T04:43:14.761Z,99946.00
2023-01-27T04:44:47.930Z,99952.00
2023-01-27T04:46:20.077Z,99947.00
2023-01-27T04:47:53.458Z,99952.00
2023-01-27T04:49:27.527Z,99952.00
2023-01-27T04:50:59.679Z,99955.00
2023-01-27T04:52:34.148Z,99950.00
2023-01-27T04:54:07.792Z,99949.00
2023-01-27T04:55:41.398Z,99954.00
2023-01-27T04:57:14.549Z,99960.00
2023-01-27T04:58:46.738Z,99965.00
2023-01-27T05:00:21.582Z,99960.00
2023-01-27T05:01:54.918Z,99963.00
2023-01-27T05:03:27.123Z,99969.00
2023-01-27T05:05:04.470Z,99961.00
2023-01-27T05:06:37.705Z,99976.00
2023-01-27T05:08:12.308Z,99971.00
2023-01-27T05:09:45.453Z,99963.00
2023-01-27T05:11:19.294Z,99973.00
2023-01-27T05:12:52.571Z,99975.00
2023-01-27T05:14:26.043Z,99986.00
2023-01-27T05:16:11.753Z,99971.00
2023-01-27T05:17:44.839Z,99980.00
2023-01-27T05:19:18.128Z,99973.00
2023-01-27T05:20:52.155Z,99979.00
2023-01-27T05:22:25.615Z,99977.00
2023-01-27T05:24:00.187Z,99974.00
2023-01-27T05:25:32.361Z,99966.00
2023-01-27T05:27:05.931Z,99980.00
2023-01-27T05:28:40.781Z,99975.00
2023-01-27T05:30:15.151Z,99973.00
2023-01-27T05:31:48.282Z,99980.00
2023-01-27T05:33:20.501Z,99985.00
2023-01-27T05:34:53.699Z,99995.00
2023-01-27T05:36:28.806Z,99985.00
2023-01-27T05:38:01.212Z,99994.00
2023-01-27T05:39:35.852Z,99994.00
2023-01-27T05:41:12.136Z,99997.00
2023-01-27T05:42:44.342Z,99989.00
2023-01-27T05:44:17.464Z,99987.00
2023-01-27T05:45:49.744Z,99994.00
2023-01-27T05:47:22.883Z,100002.00
2023-01-27T05:48:59.865Z,99995.00
2023-01-27T05:50:33.061Z,100014.00
2023-01-27T05:52:06.378Z,99997.00
2023-01-27T05:53:39.639Z,100008.00
2023-01-27T05:55:14.560Z,100003.00
2023-01-27T05:56:51.164Z,99999.00
2023-01-27T05:58:25.086Z,100009.00
2023-01-27T05:59:57.211Z,100000.00
2023-01-27T06:01:34.011Z,99994.00
2023-01-27T06:03:07.355Z,100005.00
2023-01-27T06:04:40.607Z,100006.00
2023-01-27T06:06:16.405Z,100009.00
2023-01-27T06:07:49.647Z,100006.00
2023-01-27T06:09:22.916Z,100006.00
2023-01-27T06:10:57.470Z,100004.00
2023-01-27T06:12:30.615Z,100013.00
2023-01-27T06:14:03.743Z,100001.00
2023-01-27T06:15:35.936Z,100009.00
2023-01-27T06:17:09.191Z,100001.00
2023-01-27T06:18:42.609Z,100010.00
2023-01-27T06:20:15.947Z,100010.00
2023-01-27T06:21:49.115Z,100004.00
2023-01-27T06:23:22.468Z,100010.00
2023-01-27T06:24:55.633Z,100008.00
2023-01-27T06:26:30.311Z,100013.00
2023-01-27T06:28:02.448Z,100007.00
2023-01-27T06:29:35.646Z,100010.00
2023-01-27T06:31:11.411Z,100005.00
2023-01-27T06:32:44.568Z,100017.00
2023-01-27T06:34:17.685Z,100016.00
2023-01-27T06:35:50.832Z,100014.00
2023-01-27T06:37:23.977Z,100009.00
2023-01-27T06:38:57.106Z,100011.00
2023-01-27T06:40:32.784Z,100022.00
2023-01-27T06:42:09.657Z,100026.00
2023-01-27T06:43:42.808Z,100021.00
2023-01-27T06:45:16.232Z,100029.00
2023-01-27T06:46:49.627Z,100031.00
2023-01-27T06:48:22.742Z,100026.00
2023-01-27T06:49:55.944Z,100034.00
2023-01-27T06:51:29.121Z,100029.00
2023-01-27T06:53:04.388Z,100041.00
2023-01-27T06:54:37.583Z,100033.00
2023-01-27T06:56:10.768Z,100037.00
2023-01-27T06:57:47.705Z,100027.00
2023-01-27T06:59:20.883Z,100028.00
2023-01-27T07:00:54.174Z,100043.00
2023-01-27T07:02:27.379Z,100043.00
2023-01-27T07:04:00.551Z,100043.00
2023-01-27T07:05:35.497Z,100048.00
2023-01-27T07:07:08.667Z,100047.00
2023-01-27T07:08:41.935Z,100056.00
2023-01-27T07:10:15.670Z,100047.00
2023-01-27T07:11:49.246Z,100051.00
2023-01-27T07:13:23.794Z,100051.00
2023-01-27T07:14:57.109Z,100052.00
2023-01-27T07:16:30.461Z,100050.00
2023-01-27T07:18:05.369Z,100043.00
2023-01-27T07:19:38.542Z,100058.00
2023-01-27T07:21:12.550Z,100052.00
2023-01-27T07:22:45.709Z,100056.00
2023-01-27T07:24:19.144Z,100059.00
2023-01-27T07:25:52.325Z,100063.00
2023-01-27T07:27:26.269Z,100073.00
2023-01-27T07:29:00.932Z,100065.00
2023-01-27T07:30:35.174Z,100063.00
2023-01-27T07:32:08.577Z,100061.00
2023-01-27T07:33:43.839Z,100062.00
2023-01-27T07:35:17.855Z,100069.00
2023-01-27T07:36:51.052Z,100074.00
2023-01-27T07:38:24.409Z,100077.00
2023-01-27T07:39:58.952Z,100084.00
2023-01-27T07:41:32.300Z,100075.00
2023-01-27T07:43:05.504Z,100082.00
2023-01-27T07:44:42.380Z,100070.00
2023-01-27T07:46:15.736Z,100073.00
2023-01-27T07:47:48.883Z,100074.00
2023-01-27T07:49:22.027Z,100082.00
2023-01-27T07:50:55.234Z,100083.00
2023-01-27T07:52:28.413Z,100091.00
2023-01-27T07:54:02.217Z,100091.00
2023-01-27T07:55:35.863Z,100085.00
2023-01-27T07:57:09.259Z,100085.00
2023-01-27T07:58:43.448Z,100085.00
2023-01-27T08:00:21.861Z,100087.00
2023-01-27T08:01:55.304Z,100084.00
2023-01-27T08:03:28.530Z,100085.00
2023-01-27T08:05:01.774Z,100085.00
2023-01-27T08:06:34.977Z,100093.00
2023-01-27T08:08:08.147Z,100092.00
2023-01-27T08:09:41.327Z,100099.00
2023-01-27T08:11:16.191Z,100095.00
2023-01-27T08:12:49.870Z,100096.00
2023-01-27T08:14:23.052Z,100093.00
2023-01-27T08:16:01.191Z,100094.00
2023-01-27T08:17:34.432Z,100096.00
2023-01-27T08:19:07.579Z,100102.00
2023-01-27T08:20:40.755Z,100107.00
2023-01-27T08:22:19.628Z,100109.00
2023-01-27T08:23:58.074Z,100101.00
2023-01-27T08:25:31.332Z,100109.00
2023-01-27T08:27:07.157Z,100099.00
2023-01-27T08:28:43.052Z,100097.00
2023-01-27T08:30:16.860Z,100094.00
2023-01-27T08:31:51.450Z,100103.00
2023-01-27T08:33:25.367Z,100098.00
2023-01-27T08:34:58.548Z,100102.00
2023-01-27T08:36:31.809Z,100101.00
2023-01-27T08:38:05.379Z,100111.00
2023-01-27T08:39:38.501Z,100103.00
2023-01-27T08:41:16.008Z,100103.00
2023-01-27T08:42:51.580Z,100105.00
2023-01-27T08:44:25.135Z,100099.00
2023-01-27T08:46:00.294Z,100105.00
2023-01-27T08:47:34.940Z,100114.00
2023-01-27T08:49:08.201Z,100106.00
2023-01-27T08:50:41.573Z,100112.00
2023-01-27T08:52:15.451Z,100110.00
2023-01-27T08:53:48.792Z,100103.00
2023-01-27T08:55:22.022Z,100117.00
2023-01-27T08:56:55.302Z,100113.00
2023-01-27T08:58:28.808Z,100113.00
2023-01-27T09:00:02.090Z,100104.00
2023-01-27T09:01:35.564Z,100106.00
2023-01-27T09:03:10.165Z,100105.00
2023-01-27T09:04:45.101Z,100105.00
2023-01-27T09:06:18.837Z,100105.00
2023-01-27T09:07:58.443Z,100110.00
2023-01-27T09:09:32.567Z,100104.00
2023-01-27T09:11:14.142Z,100103.00
2023-01-27T09:12:47.691Z,100119.00
2023-01-27T09:14:21.161Z,100124.00
2023-01-27T09:15:54.825Z,100125.00
2023-01-27T09:17:29.246Z,100128.00
2023-01-27T09:19:04.332Z,100129.00
2023-01-27T09:20:38.337Z,100124.00
2023-01-27T09:22:11.429Z,100127.00
2023-01-27T09:23:44.567Z,100127.00
2023-01-27T09:25:19.122Z,100134.00
2023-01-27T09:26:52.500Z,100135.00
2023-01-27T09:28:28.982Z,100133.00
2023-01-27T09:30:02.124Z,100129.00
2023-01-27T09:31:35.280Z,100144.00
2023-01-27T09:33:09.030Z,100133.00
2023-01-27T09:34:44.314Z,100136.00
2023-01-27T09:36:22.127Z,100137.00
2023-01-27T09:37:58.666Z,100150.00
2023-01-27T09:39:35.547Z,100146.00
2023-01-27T09:42:08.409Z,100150.00
2023-01-27T09:44:11.095Z,100151.00
2023-01-27T09:46:01.644Z,100157.00
2023-01-27T09:47:58.112Z,100157.00
2023-01-27T09:50:00.485Z,100162.00
2023-01-27T09:51:51.115Z,100156.00
2023-01-27T09:53:54.192Z,100172.00
2023-01-27T09:55:41.298Z,100173.00
2023-01-27T09:57:24.700Z,100167.00
2023-01-27T09:59:20.720Z,100165.00
2023-01-27T10:01:14.113Z,100175.00
2023-01-27T10:03:14.049Z,100172.00
2023-01-27T10:05:33.859Z,100178.00
2023-01-27T10:07:36.408Z,100181.00
2023-01-27T10:09:46.254Z,100178.00
2023-01-27T10:11:28.335Z,100181.00
2023-01-27T10:13:20.258Z,100193.00
2023-01-27T10:15:10.678Z,100183.00
2023-01-27T10:17:21.954Z,100188.00
2023-01-27T10:19:14.933Z,100178.00
2023-01-27T10:21:02.820Z,100181.00
2023-01-27T10:22:47.980Z,100181.00
2023-01-27T10:24:45.571Z,100181.00
2023-01-27T10:26:31.691Z,100186.00
2023-01-27T10:28:15.893Z,100179.00
2023-01-27T10:29:58.831Z,100182.00
2023-01-27T10:31:38.254Z,100178.00
2023-01-27T10:33:19.011Z,100178.00
2023-01-27T10:35:01.634Z,100180.00
2023-01-27T10:36:50.479Z,100176.00
2023-01-27T10:38:39.739Z,100172.00
2023-01-27T10:40:25.584Z,100180.00
2023-01-27T10:42:10.979Z,100179.00
2023-01-27T10:44:02.663Z,100177.00
2023-01-27T10:45:41.976Z,100175.00
2023-01-27T10:47:35.725Z,100170.00
2023-01-27T10:49:22.946Z,100169.00
2023-01-27T10:51:02.781Z,100172.00
2023-01-27T10:52:46.474Z,100170.00
2023-01-27T10:54:27.898Z,100175.00
2023-01-27T10:56:09.214Z,100172.00
2023-01-27T10:57:49.370Z,100166.00
2023-01-27T10:59:34.570Z,100169.00
2023-01-27T11:01:20.873Z,100169.00
2023-01-27T11:03:05.330Z,100171.00
2023-01-27T11:04:43.943Z,100164.00
2023-01-27T11:06:24.489Z,100157.00
2023-01-27T11:08:06.072Z,100156.00
2023-01-27T11:09:49.983Z,100152.00
2023-01-27T11:11:44.808Z,100151.00
2023-01-27T11:13:19.231Z,100161.00
2023-01-27T11:14:54.770Z,100165.00
2023-01-27T11:16:35.360Z,100161.00
2023-01-27T11:18:20.048Z,100147.00
2023-01-27T11:20:04.024Z,100156.00
2023-01-27T11:21:38.156Z,100149.00
2023-01-27T11:23:19.971Z,100142.00
2023-01-27T11:25:05.778Z,100155.00
2023-01-27T11:26:45.496Z,100142.00
2023-01-27T11:28:33.367Z,100147.00
2023-01-27T11:30:16.608Z,100146.00
2023-01-27T11:31:58.181Z,100152.00
2023-01-27T11:33:51.600Z,100143.00
2023-01-27T11:35:25.069Z,100147.00
2023-01-27T11:36:58.699Z,100147.00
2023-01-27T11:38:33.354Z,100146.00
2023-01-27T11:40:18.866Z,100143.00
2023-01-27T11:41:55.711Z,100130.00
2023-01-27T11:43:30.644Z,100145.00
2023-01-27T11:45:03.860Z,100140.00
2023-01-27T11:46:38.213Z,100139.00
2023-01-27T11:48:16.249Z,100142.00
2023-01-27T11:49:53.253Z,100137.00
2023-01-27T11:51:36.558Z,100132.00
2023-01-27T11:53:20.222Z,100133.00
2023-01-27T11:55:05.654Z,100135.00
2023-01-27T11:56:42.540Z,100143.00
2023-01-27T11:58:25.825Z,100143.00
2023-01-27T12:00:05.350Z,100140.00
2023-01-27T12:01:48.044Z,100144.00
2023-01-27T12:03:29.109Z,100147.00
2023-01-27T12:05:07.454Z,100154.00
2023-01-27T12:06:48.284Z,100147.00
2023-01-27T12:08:40.434Z,100139.00
2023-01-27T12:10:29.259Z,100137.00
2023-01-27T12:12:23.278Z,100136.00
2023-01-27T12:13:59.456Z,100133.00
2023-01-27T12:15:33.223Z,100141.00
2023-01-27T12:17:09.189Z,100130.00
2023-01-27T12:19:02.720Z,100134.00
2023-01-27T12:20:40.107Z,100142.00
2023-01-27T12:22:25.704Z,100124.00
2023-01-27T12:23:59.098Z,100129.00
2023-01-27T12:25:45.747Z,100127.00
2023-01-27T12:27:24.466Z,100135.00
2023-01-27T12:29:04.215Z,100116.00
2023-01-27T12:30:40.411Z,100125.00
2023-01-27T12:32:18.855Z,100123.00
2023-01-27T12:34:03.112Z,100121.00
2023-01-27T12:35:38.196Z,100114.00
2023-01-27T12:37:24.146Z,100123.00
2023-01-27T12:39:02.258Z,100120.00
2023-01-27T12:40:43.470Z,100108.00
2023-01-27T12:42:39.262Z,100113.00
2023-01-27T12:44:18.977Z,100105.00
2023-01-27T12:46:22.120Z,100112.00
2023-01-27T12:48:17.595Z,100112.00
2023-01-27T12:49:50.749Z,100111.00
2023-01-27T12:51:35.658Z,100111.00
2023-01-27T12:53:14.841Z,100109.00
2023-01-27T12:54:51.099Z,100116.00
2023-01-27T12:56:26.854Z,100107.00
2023-01-27T12:58:00.249Z,100116.00
2023-01-27T12:59:36.244Z,100113.00
2023-01-27T13:01:28.942Z,100105.00
2023-01-27T13:03:08.389Z,100119.00
2023-01-27T13:04:43.549Z,100113.00
2023-01-27T13:06:20.189Z,100118.00
2023-01-27T13:07:54.903Z,100127.00
2023-01-27T13:09:33.322Z,100128.00
2023-01-27T13:11:06.624Z,100133.00
2023-01-27T13:12:51.652Z,100129.00
2023-01-27T13:14:25.002Z,100126.00
2023-01-27T13:16:17.236Z,100134.00
2023-01-27T13:17:51.829Z,100132.00
2023-01-27T13:19:38.935Z,100130.00
2023-01-27T13:21:18.269Z,100129.00
2023-01-27T13:22:57.805Z,100135.00
2023-01-27T13:24:41.347Z,100121.00
2023-01-27T13:26:22.340Z,100130.00
2023-01-27T13:28:01.332Z,100126.00
2023-01-27T13:29:37.343Z,100126.00
2023-01-27T13:31:19.795Z,100128.00
2023-01-27T13:33:01.800Z,100129.00
2023-01-27T13:34:44.686Z,100134.00
2023-01-27T13:36:33.313Z,100129.00
2023-01-27T13:38:19.287Z,100127.00
2023-01-27T13:40:03.455Z,100128.00
2023-01-27T13:41:44.428Z,100128.00
2023-01-27T13:43:27.712Z,100124.00
2023-01-27T13:45:06.358Z,100127.00
2023-01-27T13:47:03.675Z,100123.00
2023-01-27T13:48:45.270Z,100136.00
2023-01-27T13:50:30.157Z,100138.00
2023-01-27T13:52:03.855Z,100133.00
2023-01-27T13:53:39.412Z,100131.00
2023-01-27T13:55:15.048Z,100130.00
2023-01-27T13:57:08.036Z,100141.00
2023-01-27T13:58:55.719Z,100147.00
2023-01-27T14:00:40.011Z,100146.00
2023-01-27T14:02:45.671Z,100147.00
2023-01-27T14:04:49.635Z,100160.00
2023-01-27T14:06:45.575Z,100145.00
2023-01-27T14:08:45.197Z,100156.00
2023-01-27T14:10:26.481Z,100158.00
2023-01-27T14:12:19.139Z,100157.00
2023-01-27T14:14:18.897Z,100159.00
2023-01-27T14:16:02.402Z,100162.00
2023-01-27T14:17:49.608Z,100161.00
2023-01-27T14:19:37.427Z,100161.00
2023-01-27T14:21:39.911Z,100164.00
2023-01-27T14:23:32.093Z,100159.00
2023-01-27T14:25:21.802Z,100159.00
2023-01-27T14:27:05.315Z,100164.00
2023-01-27T14:28:58.928Z,100153.00
2023-01-27T14:30:41.536Z,100156.00
2023-01-27T14:32:28.558Z,100164.00
2023-01-27T14:34:15.387Z,100167.00
2023-01-27T14:35:54.594Z,100173.00
2023-01-27T14:37:45.406Z,100170.00
2023-01-27T14:39:31.950Z,100165.00
2023-01-27T14:41:16.901Z,100164.00
2023-01-27T14:43:14.347Z,100167.00
2023-01-27T14:45:03.669Z,100161.00
2023-01-27T14:46:57.447Z,100161.00
2023-01-27T14:48:52.142Z,100162.00
2023-01-27T14:50:43.898Z,100154.00
2023-01-27T14:52:40.009Z,100162.00
2023-01-27T14:54:54.370Z,100160.00
2023-01-27T14:56:44.516Z,100158.00
2023-01-27T14:58:38.282Z,100160.00
2023-01-27T15:00:38.022Z,100166.00
2023-01-27T15:02:34.901Z,100167.00
2023-01-27T15:04:37.750Z,100164.00
2023-01-27T15:06:24.485Z,100167.00
2023-01-27T15:08:07.604Z,100169.00
2023-01-27T15:10:00.978Z,100164.00
2023-01-27T15:12:09.276Z,100179.00
2023-01-27T15:14:04.774Z,100172.00
2023-01-27T15:16:24.562Z,100175.00
2023-01-27T15:18:17.535Z,100177.00
2023-01-27T15:20:26.308Z,100186.00
2023-01-27T15:22:39.661Z,100193.00
2023-01-27T15:24:41.631Z,100191.00
2023-01-27T15:26:20.107Z,100187.00
2023-01-27T15:27:54.774Z,100194.00
2023-01-27T15:29:31.677Z,100195.00
2023-01-27T15:31:24.931Z,100197.00
2023-01-27T15:32:59.129Z,100203.00
2023-01-27T15:34:32.389Z,100202.00
2023-01-27T15:36:31.579Z,100207.00
2023-01-27T15:38:34.005Z,100212.00
2023-01-27T15:40:17.420Z,100209.00
2023-01-27T15:42:11.430Z,100205.00
2023-01-27T15:44:06.821Z,100206.00
2023-01-27T15:45:43.529Z,100208.00
2023-01-27T15:47:26.228Z,100213.00
2023-01-27T15:49:01.916Z,100217.00
2023-01-27T15:50:40.417Z,100226.00
2023-01-27T15:52:30.266Z,100222.00
2023-01-27T15:54:10.727Z,100220.00
2023-01-27T15:55:52.657Z,100223.00
2023-01-27T15:57:32.825Z,100218.00
2023-01-27T15:59:14.854Z,100221.00
2023-01-27T16:00:53.686Z,100226.00
2023-01-27T16:02:32.944Z,100220.00
2023-01-27T16:04:16.371Z,100217.00
2023-01-27T16:05:54.396Z,100224.00
2023-01-27T16:07:35.176Z,100219.00
2023-01-27T16:09:21.142Z,100220.00
2023-01-27T16:11:39.856Z,100226.00
2023-01-27T16:13:26.283Z,100229.00
2023-01-27T16:15:22.760Z,100238.00
2023-01-27T16:17:12.596Z,100229.00
2023-01-27T16:18:51.972Z,100230.00
2023-01-27T16:20:30.837Z,100229.00
2023-01-27T16:22:07.522Z,100242.00
2023-01-27T16:23:52.389Z,100240.00
2023-01-27T16:25:39.631Z,100236.00
2023-01-27T16:27:32.072Z,100236.00
2023-01-27T16:29:18.230Z,100231.00
2023-01-27T16:31:06.549Z,100243.00
2023-01-27T16:33:03.168Z,100243.00
2023-01-27T16:34:45.236Z,100240.00
2023-01-27T16:36:25.247Z,100243.00
2023-01-27T16:38:05.445Z,100247.00
2023-01-27T16:39:48.691Z,100245.00
2023-01-27T16:41:29.593Z,100248.00
2023-01-27T16:43:14.225Z,100251.00
2023-01-27T16:44:51.853Z,100250.00
2023-01-27T16:46:34.050Z,100261.00
2023-01-27T16:48:19.805Z,100258.00
2023-01-27T16:49:56.191Z,100264.00
2023-01-27T16:51:31.150Z,100257.00
2023-01-27T16:53:08.398Z,100262.00
2023-01-27T16:54:45.107Z,100256.00
2023-01-27T16:56:27.873Z,100272.00
2023-01-27T16:58:03.581Z,100263.00
2023-01-27T16:59:40.612Z,100269.00
2023-01-27T17:01:27.844Z,100276.00
2023-01-27T17:03:05.805Z,100278.00
2023-01-27T17:04:39.264Z,100283.00
2023-01-27T17:06:18.036Z,100275.00
2023-01-27T17:08:17.833Z,100288.00
2023-01-27T17:09:55.133Z,100286.00
2023-01-27T17:11:33.357Z,100283.00
2023-01-27T17:13:06.465Z,100284.00
2023-01-27T17:14:47.185Z,100276.00
2023-01-27T17:16:25.596Z,100274.00
2023-01-27T17:17:59.596Z,100286.00
2023-01-27T17:19:35.988Z,100286.00
2023-01-27T17:21:10.369Z,100281.00
2023-01-27T17:22:44.868Z,100283.00
2023-01-27T17:24:23.603Z,100283.00
2023-01-27T17:25:57.163Z,100281.00
2023-01-27T17:27:37.115Z,100282.00
2023-01-27T17:29:18.730Z,100283.00
2023-01-27T17:30:52.457Z,100289.00
2023-01-27T17:32:29.100Z,100288.00
2023-01-27T17:34:03.447Z,100291.00
2023-01-27T17:35:40.540Z,100289.00
2023-01-27T17:37:18.095Z,100289.00
2023-01-27T17:38:52.881Z,100288.00
2023-01-27T17:40:26.070Z,100285.00
2023-01-27T17:42:01.377Z,100287.00
2023-01-27T17:43:40.065Z,100286.00
2023-01-27T17:45:28.129Z,100286.00
2023-01-27T17:47:02.003Z,100281.00
2023-01-27T17:48:40.471Z,100291.00
2023-01-27T17:50:19.565Z,100293.00
2023-01-27T17:51:55.719Z,100288.00
2023-01-27T17:53:29.211Z,100289.00
2023-01-27T17:55:03.859Z,100288.00
2023-01-27T17:56:37.078Z,100293.00
2023-01-27T17:58:27.746Z,100300.00
2023-01-27T18:00:09.627Z,100288.00
2023-01-27T18:01:47.587Z,100291.00
2023-01-27T18:03:26.381Z,100293.00
2023-01-27T18:05:08.278Z,100291.00
2023-01-27T18:06:43.777Z,100286.00
2023-01-27T18:08:18.793Z,100287.00
2023-01-27T18:09:55.842Z,100294.00
2023-01-27T18:11:33.615Z,100297.00
2023-01-27T18:13:21.896Z,100294.00
2023-01-27T18:14:55.258Z,100302.00
2023-01-27T18:16:30.798Z,100310.00
2023-01-27T18:18:09.225Z,100305.00
2023-01-27T18:19:52.053Z,100304.00
2023-01-27T18:21:27.286Z,100308.00
2023-01-27T18:23:01.517Z,100309.00
2023-01-27T18:24:35.288Z,100306.00
2023-01-27T18:26:19.692Z,100316.00
2023-01-27T18:27:57.143Z,100302.00
2023-01-27T18:29:37.806Z,100316.00
2023-01-27T18:31:19.394Z,100310.00
2023-01-27T18:33:03.904Z,100315.00
2023-01-27T18:34:48.638Z,100311.00
2023-01-27T18:36:24.433Z,100318.00
2023-01-27T18:38:01.641Z,100312.00
2023-01-27T18:39:38.514Z,100335.00
2023-01-27T18:41:19.564Z,100325.00
2023-01-27T18:42:54.171Z,100319.00
2023-01-27T18:44:34.332Z,100344.00
2023-01-27T18:46:12.123Z,100335.00
2023-01-27T18:47:45.571Z,100339.00
2023-01-27T18:49:20.269Z,100326.00
2023-01-27T18:50:53.456Z,100333.00
2023-01-27T18:52:27.235Z,100335.00
2023-01-27T18:54:00.504Z,100331.00
2023-01-27T18:55:34.491Z,100343.00
2023-01-27T18:57:07.723Z,100339.00
2023-01-27T18:58:40.944Z,100332.00
2023-01-27T19:00:17.695Z,100335.00
2023-01-27T19:01:50.911Z,100348.00
2023-01-27T19:03:27.654Z,100349.00
2023-01-27T19:05:02.311Z,100343.00